Time;durP1;ratioP1;P1;durP2;ratioP2;P2;SDS_P1;SDS_P2;PMS_P1;PMS_P2;Temp;Humidity;BMP_temperature;BMP_pressure;BME280_temperature;BME280_humidity;BME280_pressure;Samples;Min_cycle;Max_cycle;Signal;HPM_P1;HPM_P2
2023/01/29 00:00:13;;;;;;;14.60;8.07;;;;;;;-1.68;100.00;96727.41;1039463;28;20009;-74
2023/01/29 00:00:44;;;;;;;14.73;8.27;;;;;;;-1.60;100.00;96742.06;1035433;28;20024;-73
2023/01/29 00:01:14;;;;;;;13.18;7.68;;;;;;;-1.63;100.00;96739.81;1035237;28;20026;-73
2023/01/29 00:01:45;;;;;;;23.13;8.27;;;;;;;-1.62;100.00;96749.94;1023934;28;20016;-73
2023/01/29 00:02:15;;;;;;;14.65;7.53;;;;;;;-1.66;100.00;96752.03;1025647;28;20030;-73
2023/01/29 00:02:46;;;;;;;14.75;8.73;;;;;;;-1.64;100.00;96746.72;1029960;28;20431;-72
2023/01/29 00:03:16;;;;;;;16.10;8.80;;;;;;;-1.62;100.00;96747.34;1036062;28;20026;-72
2023/01/29 00:03:50;;;;;;;13.88;8.55;;;;;;;-1.63;100.00;96743.19;1031534;28;20599;-73
2023/01/29 00:04:23;;;;;;;13.98;8.82;;;;;;;-1.64;100.00;96735.63;1031225;28;20117;-73
2023/01/29 00:04:54;;;;;;;17.38;8.14;;;;;;;-1.69;100.00;96733.53;1031587;28;20094;-73
2023/01/29 00:05:24;;;;;;;14.23;7.88;;;;;;;-1.68;100.00;96737.72;1031782;28;20053;-72
2023/01/29 00:05:55;;;;;;;16.35;8.63;;;;;;;-1.61;100.00;96750.72;1031324;28;20026;-72
2023/01/29 00:06:25;;;;;;;13.10;7.80;;;;;;;-1.63;100.00;96743.19;1031335;28;20072;-73
2023/01/29 00:06:56;;;;;;;18.00;8.70;;;;;;;-1.63;100.00;96752.69;1030538;28;20033;-72
2023/01/29 00:07:26;;;;;;;14.77;8.07;;;;;;;-1.65;100.00;96745.09;1027380;28;20499;-73
2023/01/29 00:07:57;;;;;;;13.93;7.40;;;;;;;-1.67;100.00;96737.56;1027606;28;20022;-72
2023/01/29 00:08:29;;;;;;;13.77;7.88;;;;;;;-1.61;100.00;96751.56;1031772;28;20050;-73
2023/01/29 00:08:59;;;;;;;16.02;8.66;;;;;;;-1.72;100.00;96739.78;1037390;28;20705;-72
2023/01/29 00:09:30;;;;;;;15.23;8.32;;;;;;;-1.68;100.00;96753.97;1038354;28;20021;-73
2023/01/29 00:10:01;;;;;;;14.82;8.06;;;;;;;-1.95;100.00;96718.25;1039909;28;20048;-73
2023/01/29 00:10:31;;;;;;;17.00;8.90;;;;;;;-1.71;100.00;96750.88;1032055;28;20486;-73
2023/01/29 00:11:03;;;;;;;13.35;8.65;;;;;;;-1.68;100.00;96753.13;1035263;28;20084;-73
2023/01/29 00:11:36;;;;;;;16.32;8.70;;;;;;;-1.73;100.00;96752.84;1031440;28;20404;-73
2023/01/29 00:12:10;;;;;;;12.15;7.35;;;;;;;-1.77;100.00;96746.41;1029162;28;20023;-73
2023/01/29 00:12:40;;;;;;;15.06;8.26;;;;;;;-1.75;100.00;96740.13;1030269;28;20806;-72
2023/01/29 00:13:11;;;;;;;15.07;8.68;;;;;;;-1.71;100.00;96753.47;1037090;28;20074;-73
2023/01/29 00:13:42;;;;;;;15.10;8.95;;;;;;;-1.77;100.00;96749.78;1028016;28;20878;-72
2023/01/29 00:14:13;;;;;;;14.60;8.14;;;;;;;-1.78;100.00;96745.56;1031730;28;20023;-73
2023/01/29 00:14:43;;;;;;;13.80;8.13;;;;;;;-1.76;100.00;96753.94;1032176;28;20062;-73
2023/01/29 00:15:14;;;;;;;13.63;7.93;;;;;;;-1.74;100.00;96754.59;1035877;28;20657;-73
2023/01/29 00:15:54;;;;;;;14.50;8.63;;;;;;;-1.81;100.00;96738.22;1032051;28;20097;-73
2023/01/29 00:16:25;;;;;;;13.80;8.18;;;;;;;-1.74;100.00;96752.03;1027783;28;20029;-73
2023/01/29 00:16:55;;;;;;;15.50;8.75;;;;;;;-1.72;100.00;96746.72;1030945;28;20621;-73
2023/01/29 00:17:27;;;;;;;18.30;8.50;;;;;;;-1.75;100.00;96740.13;1032002;28;20438;-72
2023/01/29 00:17:57;;;;;;;14.70;8.00;;;;;;;-1.70;100.00;96750.75;1035915;28;20151;-72
2023/01/29 00:18:28;;;;;;;16.13;8.43;;;;;;;-1.77;100.00;96736.91;1033759;28;20033;-73
2023/01/29 00:19:02;;;;;;;13.48;8.07;;;;;;;-1.72;100.00;96755.22;1036023;28;20010;-73
2023/01/29 00:19:32;;;;;;;17.04;8.54;;;;;;;-1.73;100.00;96750.25;1040041;28;20279;-73
2023/01/29 00:20:03;;;;;;;14.95;7.85;;;;;;;-1.74;100.00;96749.47;1036040;28;20048;-73
2023/01/29 00:20:33;;;;;;;11.93;7.32;;;;;;;-1.78;100.00;96749.91;1032425;28;20026;-73
2023/01/29 00:21:08;;;;;;;15.45;9.13;;;;;;;-1.94;100.00;96722.44;1035592;28;20033;-73
2023/01/29 00:21:39;;;;;;;13.68;8.16;;;;;;;-1.77;100.00;96747.22;1031768;28;20113;-73
2023/01/29 00:22:09;;;;;;;15.40;8.35;;;;;;;-1.76;100.00;96748.81;1035452;28;20149;-73
2023/01/29 00:22:40;;;;;;;14.93;8.50;;;;;;;-1.77;100.00;96747.22;1035780;28;20033;-72
2023/01/29 00:23:10;;;;;;;12.15;7.82;;;;;;;-1.73;100.00;96743.34;1031849;28;20034;-73
2023/01/29 00:23:41;;;;;;;16.27;8.38;;;;;;;-1.75;100.00;96745.25;1038312;28;20018;-73
2023/01/29 00:24:11;;;;;;;15.27;8.10;;;;;;;-1.81;100.00;96735.63;1035851;28;20273;-73
2023/01/29 00:24:43;;;;;;;13.68;8.07;;;;;;;-1.94;100.00;96719.88;1031934;28;20022;-73
2023/01/29 00:25:13;;;;;;;13.44;7.58;;;;;;;-1.82;100.00;96739.16;1035340;28;20033;-72
2023/01/29 00:25:44;;;;;;;13.05;7.68;;;;;;;-1.77;100.00;96746.41;1031539;28;20019;-73
2023/01/29 00:26:14;;;;;;;15.77;8.63;;;;;;;-1.75;100.00;96749.59;1031536;28;20021;-73
2023/01/29 00:26:45;;;;;;;14.73;8.25;;;;;;;-1.83;100.00;96737.56;1030937;28;20041;-72
2023/01/29 00:27:15;;;;;;;13.20;7.80;;;;;;;-1.75;100.00;96745.25;1031306;28;20030;-73
2023/01/29 00:27:49;;;;;;;14.70;8.55;;;;;;;-1.79;100.00;96736.25;1031327;28;20085;-73
2023/01/29 00:28:20;;;;;;;17.30;8.92;;;;;;;-1.78;100.00;96740.44;1028544;28;20113;-72
2023/01/29 00:28:50;;;;;;;14.18;7.75;;;;;;;-1.82;100.00;96743.50;1032090;28;20098;-72
2023/01/29 00:29:21;;;;;;;14.18;7.90;;;;;;;-1.81;100.00;96732.22;1027298;28;20030;-72
2023/01/29 00:30:08;;;;;;;13.95;8.23;;;;;;;-1.83;100.00;96737.56;1027779;28;20453;-73
2023/01/29 00:30:38;;;;;;;15.50;8.28;;;;;;;-1.81;100.00;96740.78;1035433;28;20041;-72
2023/01/29 00:31:15;;;;;;;12.65;8.02;;;;;;;-1.96;100.00;96721.78;1034338;28;20026;-73
2023/01/29 00:31:46;;;;;;;12.92;7.50;;;;;;;-1.87;100.00;96738.03;1030714;28;20081;-73
2023/01/29 00:32:16;;;;;;;14.90;8.60;;;;;;;-1.84;100.00;96748.00;1031212;28;20628;-73
2023/01/29 00:32:47;;;;;;;16.02;8.65;;;;;;;-1.93;100.00;96736.91;1035670;28;20018;-72
2023/01/29 00:33:17;;;;;;;14.70;8.35;;;;;;;-1.83;100.00;96757.34;1035580;28;20052;-73
2023/01/29 00:33:48;;;;;;;13.63;7.60;;;;;;;-1.91;100.00;96753.00;1037994;28;20067;-72
2023/01/29 00:34:18;;;;;;;16.05;8.27;;;;;;;-1.95;100.00;96749.09;1039726;28;20029;-73
2023/01/29 00:34:49;;;;;;;16.08;8.43;;;;;;;-1.94;100.00;96751.53;1039866;28;20100;-73
2023/01/29 00:35:19;;;;;;;14.98;8.23;;;;;;;-2.03;100.00;96738.81;1039389;28;20018;-73
2023/01/29 00:35:52;;;;;;;15.34;8.62;;;;;;;-1.95;100.00;96760.19;1036288;28;20018;-72
2023/01/29 00:36:23;;;;;;;17.10;8.38;;;;;;;-2.01;100.00;96745.41;1035571;28;20025;-72
2023/01/29 00:37:03;;;;;;;17.48;7.85;;;;;;;-2.17;100.00;96722.25;1027013;28;20019;-73
2023/01/29 00:37:34;;;;;;;15.88;9.18;;;;;;;-1.95;100.00;96761.97;1024961;28;20119;-73
2023/01/29 00:38:04;;;;;;;15.85;9.07;;;;;;;-1.97;100.00;96745.91;1026992;28;20613;-72
2023/01/29 00:38:35;;;;;;;14.95;8.50;;;;;;;-2.02;100.00;96741.22;1028593;28;20022;-73
2023/01/29 00:39:11;;;;;;;16.30;7.57;;;;;;;-1.97;100.00;96745.91;1027403;28;20126;-73
2023/01/29 00:39:42;;;;;;;15.78;8.88;;;;;;;-1.92;100.00;96765.03;1028169;28;20373;-73
2023/01/29 00:40:12;;;;;;;15.88;8.88;;;;;;;-1.94;100.00;96753.31;1028669;28;20034;-73
2023/01/29 00:44:58;;;;;;;15.58;8.42;;;;;;;-2.01;100.00;96760.84;1039634;28;20074;-73
2023/01/29 00:45:31;;;;;;;16.14;9.70;;;;;;;-2.09;100.00;96747.97;1041622;28;20021;-72
2023/01/29 00:46:05;;;;;;;15.14;8.24;;;;;;;-1.99;100.00;96760.69;1035388;28;20065;-72
2023/01/29 00:46:35;;;;;;;15.76;8.60;;;;;;;-2.09;100.00;96742.03;1030667;28;20020;-72
2023/01/29 00:47:58;;;;;;;14.40;8.64;;;;;;;-2.08;100.00;96744.41;1038315;28;20033;-71
2023/01/29 00:48:32;;;;;;;17.94;9.68;;;;;;;-1.99;100.00;96763.25;1031062;28;20019;-73
2023/01/29 00:49:03;;;;;;;18.48;9.22;;;;;;;-1.97;100.00;96762.13;1034274;28;20027;-73
2023/01/29 00:49:36;;;;;;;16.92;8.32;;;;;;;-1.95;100.00;96764.53;1039479;28;20079;-73
2023/01/29 00:50:08;;;;;;;17.78;8.86;;;;;;;-2.02;100.00;96755.84;1036377;28;20037;-72
2023/01/29 00:50:39;;;;;;;18.30;9.52;;;;;;;-1.95;100.00;96757.63;1032058;28;20368;-73
2023/01/29 00:51:09;;;;;;;15.63;9.18;;;;;;;-1.94;100.00;96756.69;1036095;28;20060;-73
2023/01/29 00:51:40;;;;;;;15.52;8.98;;;;;;;-1.94;100.00;96761.03;1035672;28;20053;-73
2023/01/29 00:52:25;;;;;;;16.02;8.30;;;;;;;-2.00;100.00;96751.34;1040101;28;20025;-73
2023/01/29 00:52:56;;;;;;;16.96;8.82;;;;;;;-2.03;100.00;96751.69;1035886;28;20018;-73
2023/01/29 00:53:26;;;;;;;14.70;8.48;;;;;;;-2.26;100.00;96713.72;1037501;28;20140;-72
2023/01/29 00:53:59;;;;;;;15.05;8.90;;;;;;;-2.05;100.00;96743.31;1039479;28;20020;-72
2023/01/29 00:54:30;;;;;;;18.32;9.20;;;;;;;-1.97;100.00;96751.03;1035969;28;20031;-73
2023/01/29 00:55:00;;;;;;;13.98;9.13;;;;;;;-1.99;100.00;96753.75;1039992;28;20490;-72
2023/01/29 00:55:31;;;;;;;16.90;9.00;;;;;;;-1.94;100.00;96748.97;1035431;28;20079;-72
2023/01/29 00:56:01;;;;;;;17.38;9.57;;;;;;;-1.98;100.00;96752.00;1033791;28;20040;-72
2023/01/29 00:56:35;;;;;;;14.70;8.80;;;;;;;-2.01;100.00;96748.00;1035237;28;20030;-73
2023/01/29 00:57:05;;;;;;;15.92;9.08;;;;;;;-2.02;100.00;96748.13;1039270;28;20112;-72
2023/01/29 00:57:36;;;;;;;15.18;8.60;;;;;;;-2.06;100.00;96746.84;1035425;28;20061;-73
2023/01/29 00:58:06;;;;;;;15.68;9.35;;;;;;;-2.01;100.00;96747.16;1034849;28;20030;-73
2023/01/29 00:58:37;;;;;;;18.50;9.50;;;;;;;-2.02;100.00;96743.78;1031569;28;20034;-73
2023/01/29 00:59:07;;;;;;;18.27;9.77;;;;;;;-2.15;100.00;96728.84;1035170;28;20438;-72
2023/01/29 00:59:38;;;;;;;16.30;9.43;;;;;;;-1.98;100.00;96746.84;1035501;28;20076;-73
2023/01/29 01:00:11;;;;;;;16.52;9.45;;;;;;;-1.97;100.00;96748.47;1035402;28;20018;-73
2023/01/29 01:00:41;;;;;;;16.12;8.88;;;;;;;-2.00;100.00;96741.06;1031180;28;20079;-72
2023/01/29 01:01:12;;;;;;;18.20;9.40;;;;;;;-1.99;100.00;96737.53;1032250;28;20053;-73
2023/01/29 01:03:20;;;;;;;19.38;9.46;;;;;;;-1.88;100.00;96749.28;1037235;28;20018;-72
2023/01/29 01:03:51;;;;;;;15.93;9.00;;;;;;;-1.95;100.00;96744.75;1043786;28;20551;-72
2023/01/29 01:04:24;;;;;;;15.74;9.42;;;;;;;-1.94;100.00;96751.53;1039110;28;20753;-72
2023/01/29 01:04:57;;;;;;;20.80;9.15;;;;;;;-1.93;100.00;96752.34;1034058;28;20026;-72
2023/01/29 01:05:31;;;;;;;17.50;9.88;;;;;;;-1.97;100.00;96745.91;1035310;28;20101;-72
2023/01/29 01:06:05;;;;;;;19.00;9.15;;;;;;;-1.91;100.00;96761.50;1032266;28;20033;-73
2023/01/29 01:06:37;;;;;;;18.20;9.90;;;;;;;-1.91;100.00;96755.56;1036338;28;20100;-72
2023/01/29 01:07:10;;;;;;;16.24;9.70;;;;;;;-1.90;100.00;96754.59;1034842;28;20090;-73
2023/01/29 01:07:40;;;;;;;15.68;9.98;;;;;;;-1.93;100.00;96763.41;1035213;28;20037;-73
2023/01/29 01:10:38;;;;;;;21.38;8.92;;;;;;;-1.88;100.00;96754.41;1035536;28;20022;-73
2023/01/29 01:11:09;;;;;;;18.67;10.20;;;;;;;-1.95;100.00;96743.97;1038296;28;20018;-73
2023/01/29 01:11:39;;;;;;;17.67;9.60;;;;;;;-1.90;100.00;96757.97;1047685;28;20466;-73
2023/01/29 01:12:10;;;;;;;17.08;9.35;;;;;;;-1.87;100.00;96751.69;1048096;28;20051;-73
2023/01/29 01:12:40;;;;;;;17.48;9.40;;;;;;;-1.99;100.00;96740.91;1043517;28;20036;-73
2023/01/29 01:13:11;;;;;;;16.17;9.63;;;;;;;-1.93;100.00;96752.34;1043676;28;20051;-73
2023/01/29 01:13:42;;;;;;;18.50;9.93;;;;;;;-1.91;100.00;96753.00;1039450;28;20010;-73
2023/01/29 01:14:12;;;;;;;18.63;10.35;;;;;;;-1.98;100.00;96747.69;1035448;28;20018;-73
2023/01/29 01:14:43;;;;;;;18.25;9.32;;;;;;;-1.91;100.00;96756.34;1031402;28;20053;-72
2023/01/29 01:15:13;;;;;;;20.08;9.93;;;;;;;-1.91;100.00;96758.13;1031221;28;20102;-73
2023/01/29 01:15:44;;;;;;;16.65;9.80;;;;;;;-1.89;100.00;96758.75;1039642;28;20017;-73
2023/01/29 01:16:17;;;;;;;15.30;9.48;;;;;;;-1.91;100.00;96758.94;1039772;28;20025;-73
2023/01/29 01:16:47;;;;;;;21.32;10.88;;;;;;;-1.90;100.00;96754.59;1030378;28;20046;-72
2023/01/29 01:17:18;;;;;;;21.84;10.32;;;;;;;-1.95;100.00;96747.34;1031190;28;20455;-73
2023/01/29 01:17:59;;;;;;;16.70;9.45;;;;;;;-1.92;100.00;96752.16;1035391;28;20022;-72
2023/01/29 01:18:29;;;;;;;19.02;10.15;;;;;;;-1.87;100.00;96762.00;1036629;28;20545;-73
2023/01/29 01:19:00;;;;;;;19.13;10.57;;;;;;;-1.87;100.00;96761.19;1031560;28;20069;-72
2023/01/29 01:19:30;;;;;;;17.45;10.07;;;;;;;-1.86;100.00;96758.44;1032682;28;20026;-73
2023/01/29 01:20:01;;;;;;;17.08;9.88;;;;;;;-2.03;100.00;96737.03;1035837;28;20014;-72
2023/01/29 01:20:33;;;;;;;20.48;10.68;;;;;;;-1.86;100.00;96758.44;1039362;28;20096;-73
2023/01/29 01:21:04;;;;;;;16.48;9.96;;;;;;;-1.85;100.00;96762.63;1031374;28;20507;-73
2023/01/29 01:21:34;;;;;;;17.20;9.73;;;;;;;-1.93;100.00;96757.47;1035374;28;20024;-73
2023/01/29 01:22:04;;;;;;;17.83;10.07;;;;;;;-1.94;100.00;96761.03;1034585;28;20033;-73
2023/01/29 01:22:35;;;;;;;16.08;9.80;;;;;;;-1.95;100.00;96754.25;1035446;28;20457;-72
2023/01/29 01:23:05;;;;;;;15.25;9.40;;;;;;;-1.96;100.00;96757.78;1035460;28;20188;-73
2023/01/29 01:23:36;;;;;;;19.92;9.88;;;;;;;-2.08;100.00;96765.00;1035876;28;20050;-73
2023/01/29 01:24:06;;;;;;;17.48;9.63;;;;;;;-2.08;100.00;96759.03;1034593;28;20026;-73
2023/01/29 01:24:37;;;;;;;16.20;9.43;;;;;;;-2.09;100.00;96754.88;1034242;28;20109;-72
2023/01/29 01:25:08;;;;;;;15.75;9.40;;;;;;;-2.05;100.00;96761.31;1043837;28;20029;-73
2023/01/29 01:25:38;;;;;;;16.92;9.50;;;;;;;-2.08;100.00;96759.84;1043029;28;20020;-73
2023/01/29 01:26:09;;;;;;;18.45;9.52;;;;;;;-2.16;100.00;96752.94;1040019;28;20031;-73
2023/01/29 01:26:40;;;;;;;19.75;9.65;;;;;;;-2.06;100.00;96762.28;1035172;28;20089;-73
2023/01/29 01:27:11;;;;;;;17.77;10.27;;;;;;;-2.05;100.00;96756.16;1031215;28;20018;-72
2023/01/29 01:27:41;;;;;;;15.74;9.16;;;;;;;-2.05;100.00;96751.81;1028123;28;20026;-73
2023/01/29 01:28:12;;;;;;;16.73;10.18;;;;;;;-2.01;100.00;96760.00;1023378;28;20393;-73
2023/01/29 01:28:43;;;;;;;17.75;9.45;;;;;;;-2.11;100.00;96749.06;1027474;28;20026;-73
2023/01/29 01:29:13;;;;;;;15.77;9.00;;;;;;;-2.10;100.00;96748.13;1035986;28;20018;-73
2023/01/29 01:29:47;;;;;;;17.50;10.12;;;;;;;-2.08;100.00;96753.91;1036180;28;20038;-73
2023/01/29 01:30:17;;;;;;;15.63;9.57;;;;;;;-2.09;100.00;96747.97;1031243;28;20110;-73
2023/01/29 01:30:48;;;;;;;18.85;10.40;;;;;;;-2.02;100.00;96761.00;1027869;28;20427;-73
2023/01/29 01:31:18;;;;;;;18.15;9.52;;;;;;;-2.09;100.00;96747.16;1031704;28;20651;-73
2023/01/29 01:31:49;;;;;;;18.63;10.48;;;;;;;-2.08;100.00;96752.13;1035379;28;20018;-73
2023/01/29 01:32:19;;;;;;;15.88;9.80;;;;;;;-2.07;100.00;96750.38;1039459;28;20092;-73
2023/01/29 01:32:53;;;;;;;16.58;9.32;;;;;;;-2.02;100.00;96750.69;1035140;28;20086;-73
2023/01/29 01:33:23;;;;;;;18.06;10.12;;;;;;;-1.96;100.00;96765.50;1038054;28;20017;-73
2023/01/29 01:33:54;;;;;;;15.02;9.60;;;;;;;-2.06;100.00;96745.06;1035945;28;20387;-72
2023/01/29 01:34:26;;;;;;;17.05;9.90;;;;;;;-2.06;100.00;96760.50;1035604;28;20021;-73
2023/01/29 01:34:56;;;;;;;16.06;10.14;;;;;;;-2.08;100.00;96752.13;1039640;28;20109;-72
2023/01/29 01:35:27;;;;;;;18.35;9.68;;;;;;;-2.15;100.00;96749.41;1039693;28;20021;-72
2023/01/29 01:36:01;;;;;;;17.68;9.54;;;;;;;-2.04;100.00;96750.06;1039934;28;20033;-72
2023/01/29 01:36:31;;;;;;;19.20;10.20;;;;;;;-2.07;100.00;96761.47;1039730;28;20021;-73
2023/01/29 01:37:02;;;;;;;17.67;9.95;;;;;;;-2.07;100.00;96756.34;1034600;28;20030;-73
2023/01/29 01:37:32;;;;;;;18.52;9.35;;;;;;;-2.18;100.00;96736.88;1035349;28;20017;-73
2023/01/29 01:38:02;;;;;;;16.23;9.45;;;;;;;-2.12;100.00;96753.41;1035750;28;20026;-72
2023/01/29 01:38:33;;;;;;;17.90;9.98;;;;;;;-2.24;100.00;96734.94;1035047;28;20029;-72
2023/01/29 01:39:03;;;;;;;17.45;9.80;;;;;;;-2.17;100.00;96748.75;1038431;28;20013;-73
2023/01/29 01:39:37;;;;;;;19.05;9.90;;;;;;;-2.12;100.00;96750.84;1035670;28;20022;-73
2023/01/29 01:40:16;;;;;;;16.54;10.00;;;;;;;-2.14;100.00;96753.59;1035438;28;20030;-73
2023/01/29 01:40:47;;;;;;;18.38;10.22;;;;;;;-2.13;100.00;96755.19;1039640;28;20017;-72
2023/01/29 01:41:21;;;;;;;19.77;10.43;;;;;;;-2.17;100.00;96743.63;1035220;28;20050;-72
2023/01/29 01:41:54;;;;;;;16.06;9.68;;;;;;;-2.15;100.00;96733.16;1027506;28;20027;-73
2023/01/29 01:42:31;;;;;;;17.60;9.78;;;;;;;-2.12;100.00;96732.84;1031563;28;20910;-72
2023/01/29 01:43:04;;;;;;;14.28;9.08;;;;;;;-2.06;100.00;96741.69;1037083;28;20022;-73
2023/01/29 01:43:49;;;;;;;19.68;10.28;;;;;;;-2.07;100.00;96746.03;1041548;28;20102;-73
2023/01/29 01:44:55;;;;;;;17.04;9.96;;;;;;;-2.06;100.00;96746.84;1042686;28;20021;-73
2023/01/29 01:45:35;;;;;;;17.28;9.44;;;;;;;-2.20;100.00;96741.34;1042070;28;20025;-73
2023/01/29 01:46:05;;;;;;;18.33;9.32;;;;;;;-2.15;100.00;96743.44;1039593;28;20596;-72
2023/01/29 01:46:36;;;;;;;19.20;9.98;;;;;;;-2.24;100.00;96726.41;1038432;28;20109;-73
2023/01/29 01:47:07;;;;;;;18.00;9.16;;;;;;;-2.23;100.00;96739.09;1035176;28;20089;-72
2023/01/29 01:47:44;;;;;;;16.92;9.88;;;;;;;-2.22;100.00;96745.84;1035081;28;20141;-72
2023/01/29 01:48:22;;;;;;;21.46;10.82;;;;;;;-2.26;100.00;96739.41;1035516;28;20010;-73
2023/01/29 01:49:07;;;;;;;17.86;10.54;;;;;;;-2.33;100.00;96730.72;1037515;28;21013;-73
2023/01/29 01:49:38;;;;;;;16.08;9.68;;;;;;;-2.35;100.00;96735.19;1039611;28;20013;-73
2023/01/29 01:50:29;;;;;;;15.77;9.75;;;;;;;-2.28;100.00;96749.06;1035660;28;20018;-72
2023/01/29 01:51:02;;;;;;;14.64;9.54;;;;;;;-2.28;100.00;96749.06;1031219;28;20021;-72
2023/01/29 01:51:34;;;;;;;18.40;10.24;;;;;;;-2.30;100.00;96743.25;1029417;28;20027;-72
2023/01/29 01:52:05;;;;;;;21.88;10.16;;;;;;;-2.27;100.00;96744.72;1027498;28;20018;-73
2023/01/29 01:52:37;;;;;;;21.10;10.70;;;;;;;-2.30;100.00;96734.75;1029567;28;20123;-72
2023/01/29 01:53:13;;;;;;;20.92;10.88;;;;;;;-2.35;100.00;96727.50;1032025;28;20460;-72
2023/01/29 01:53:52;;;;;;;16.48;9.88;;;;;;;-2.30;100.00;96734.75;1029306;28;20694;-73
2023/01/29 01:54:24;;;;;;;18.20;9.54;;;;;;;-2.34;100.00;96734.25;1027287;28;20025;-73
2023/01/29 01:54:54;;;;;;;20.50;10.90;;;;;;;-2.31;100.00;96744.22;1023210;29;20011;-73
2023/01/29 01:55:25;;;;;;;18.80;9.70;;;;;;;-2.41;100.00;96733.28;1027041;28;20029;-73
2023/01/29 01:55:58;;;;;;;18.86;10.50;;;;;;;-2.31;100.00;96746.81;1029569;28;20018;-72
2023/01/29 01:56:37;;;;;;;17.22;10.10;;;;;;;-2.32;100.00;96747.75;1026882;28;20476;-73
2023/01/29 01:57:17;;;;;;;19.14;9.78;;;;;;;-2.45;100.00;96734.53;1023369;29;20078;-72
2023/01/29 01:57:50;;;;;;;18.35;9.75;;;;;;;-2.36;100.00;96751.59;1026548;28;20027;-73
2023/01/29 01:58:23;;;;;;;17.86;10.00;;;;;;;-2.45;100.00;96737.09;1030111;28;20049;-73
2023/01/29 01:58:54;;;;;;;17.76;11.02;;;;;;;-2.42;100.00;96741.94;1031840;28;20031;-73
2023/01/29 01:59:24;;;;;;;16.92;10.20;;;;;;;-2.39;100.00;96742.41;1030968;28;20086;-73
2023/01/29 02:00:08;;;;;;;18.10;10.13;;;;;;;-2.32;100.00;96745.16;1031739;28;20381;-73
2023/01/29 02:00:39;;;;;;;17.56;10.40;;;;;;;-2.32;100.00;96750.31;1035339;28;20053;-73
2023/01/29 02:01:10;;;;;;;20.95;10.23;;;;;;;-2.27;100.00;96755.81;1031191;28;20026;-73
2023/01/29 02:01:41;;;;;;;19.70;10.85;;;;;;;-2.33;100.00;96746.16;1031231;28;20122;-73
2023/01/29 02:09:59;;;;;;;23.62;10.64;;;;;;;-2.11;100.00;96744.75;1034015;28;20022;-73
2023/01/29 02:10:36;;;;;;;23.38;10.20;;;;;;;-2.09;100.00;96744.59;1036125;28;20694;-73
2023/01/29 02:11:07;;;;;;;16.40;10.00;;;;;;;-2.11;100.00;96741.34;1030183;28;20018;-73
2023/01/29 02:11:37;;;;;;;18.98;10.55;;;;;;;-2.10;100.00;96745.56;1029852;28;21566;-74
2023/01/29 02:12:11;;;;;;;20.58;11.48;;;;;;;-2.14;100.00;96740.72;1024787;28;20075;-73
2023/01/29 02:12:42;;;;;;;19.46;10.24;;;;;;;-2.13;100.00;96746.69;1027119;28;20025;-72
2023/01/29 02:13:15;;;;;;;19.77;10.57;;;;;;;-2.10;100.00;96745.56;1031400;28;20580;-72
2023/01/29 02:13:45;;;;;;;21.18;10.88;;;;;;;-2.12;100.00;96753.41;1031272;28;20265;-73
2023/01/29 02:14:16;;;;;;;19.08;10.93;;;;;;;-2.29;100.00;96726.06;1035211;28;20030;-73
2023/01/29 02:14:46;;;;;;;16.20;10.18;;;;;;;-2.18;100.00;96728.34;1035264;28;20010;-73
2023/01/29 02:15:17;;;;;;;18.63;10.30;;;;;;;-2.15;100.00;96743.44;1031227;28;20018;-73
2023/01/29 02:15:47;;;;;;;18.88;10.20;;;;;;;-2.09;100.00;96745.38;1031121;28;20468;-73
2023/01/29 02:16:20;;;;;;;17.63;10.32;;;;;;;-2.18;100.00;96729.16;1031438;28;20022;-73
2023/01/29 02:16:50;;;;;;;18.78;10.66;;;;;;;-2.11;100.00;96743.94;1037262;28;20032;-73
2023/01/29 02:17:21;;;;;;;18.52;11.27;;;;;;;-2.16;100.00;96732.34;1035807;28;20021;-73
2023/01/29 02:17:51;;;;;;;17.83;10.95;;;;;;;-2.25;100.00;96712.75;1035020;28;20018;-73
2023/01/29 02:18:21;;;;;;;16.17;10.05;;;;;;;-2.15;100.00;96731.41;1031435;28;20022;-73
2023/01/29 02:18:52;;;;;;;19.60;10.90;;;;;;;-2.16;100.00;96724.66;1035477;28;20010;-73
2023/01/29 02:20:00;;;;;;;17.35;9.73;;;;;;;-2.06;100.00;96736.56;1035343;28;20072;-73
2023/01/29 02:20:31;;;;;;;15.30;9.38;;;;;;;-2.08;100.00;96731.56;1033521;28;20010;-72
2023/01/29 02:21:06;;;;;;;16.58;9.88;;;;;;;-2.08;100.00;96739.28;1040412;28;20053;-73
2023/01/29 02:21:51;;;;;;;16.78;10.12;;;;;;;-2.10;100.00;96737.84;1035631;28;20018;-73
2023/01/29 02:22:30;;;;;;;21.84;10.32;;;;;;;-2.09;100.00;96742.03;1027898;28;20898;-72
2023/01/29 02:23:37;;;;;;;19.88;10.04;;;;;;;-2.13;100.00;96739.75;1031307;28;20034;-71
2023/01/29 02:24:39;;;;;;;15.68;9.06;;;;;;;-2.09;100.00;96739.44;1042326;28;20010;-72
2023/01/29 02:25:37;;;;;;;19.14;9.82;;;;;;;-2.13;100.00;96747.47;1035709;28;20022;-74
2023/01/29 02:26:19;;;;;;;25.44;11.60;;;;;;;-2.15;100.00;96739.13;1035914;28;20029;-72
2023/01/29 02:27:02;;;;;;;18.54;10.10;;;;;;;-2.18;100.00;96738.63;1037534;28;20034;-72
2023/01/29 02:27:47;;;;;;;17.40;9.26;;;;;;;-2.16;100.00;96742.66;1036237;28;20017;-73
2023/01/29 02:28:34;;;;;;;17.26;9.74;;;;;;;-2.30;100.00;96730.41;1040504;28;20020;-72
2023/01/29 02:29:57;;;;;;;16.32;9.98;;;;;;;-2.22;100.00;96743.28;1036298;28;20018;-73
2023/01/29 02:30:35;;;;;;;18.58;10.20;;;;;;;-2.27;100.00;96742.94;1023651;28;20696;-73
2023/01/29 02:31:20;;;;;;;17.18;10.00;;;;;;;-2.31;100.00;96727.97;1020137;29;20024;-73
2023/01/29 02:32:18;;;;;;;18.74;9.66;;;;;;;-2.27;100.00;96729.31;1019781;29;20051;-72
2023/01/29 02:33:13;;;;;;;19.90;9.62;;;;;;;-2.30;100.00;96740.69;1024080;29;20042;-73
2023/01/29 02:34:08;;;;;;;16.52;9.60;;;;;;;-2.44;100.00;96707.91;1023671;29;20436;-72
2023/01/29 02:35:41;;;;;;;16.42;9.24;;;;;;;-2.39;100.00;96737.28;1025577;28;20035;-73
2023/01/29 02:36:25;;;;;;;15.48;9.32;;;;;;;-2.48;100.00;96719.44;1031350;28;20019;-73
2023/01/29 02:37:03;;;;;;;16.30;9.34;;;;;;;-2.43;100.00;96738.56;1037643;28;20093;-73
2023/01/29 02:37:37;;;;;;;19.20;9.92;;;;;;;-2.43;100.00;96727.47;1030673;28;20149;-73
2023/01/29 02:38:14;;;;;;;18.20;9.32;;;;;;;-2.47;100.00;96732.13;1034860;28;20034;-70
2023/01/29 02:39:17;;;;;;;18.80;9.86;;;;;;;-2.57;100.00;96728.88;1038168;28;20033;-72
2023/01/29 02:39:52;;;;;;;18.74;9.48;;;;;;;-2.51;100.00;96727.47;1038536;28;20040;-72
2023/01/29 02:40:37;;;;;;;21.94;11.04;;;;;;;-2.49;100.00;96728.09;1027646;28;20089;-72
2023/01/29 02:41:11;;;;;;;17.54;9.96;;;;;;;-2.51;100.00;96728.28;1034117;28;20022;-72
2023/01/29 02:42:05;;;;;;;18.46;10.28;;;;;;;-2.51;100.00;96724.91;1031101;28;20660;-72
2023/01/29 02:42:38;;;;;;;;;;;;;;;-2.50;100.00;96731.66;1028623;28;20027;-72
2023/01/29 02:43:15;;;;;;;16.50;9.28;;;;;;;-2.53;100.00;96734.53;1031136;28;19909;-72
2023/01/29 02:44:04;;;;;;;21.32;9.94;;;;;;;-2.55;100.00;96732.09;1026195;28;20022;-73
2023/01/29 02:44:38;;;;;;;20.52;9.96;;;;;;;-2.59;100.00;96727.44;1025261;28;20026;-72
2023/01/29 02:45:14;;;;;;;18.66;10.54;;;;;;;-2.53;100.00;96740.47;1030782;28;20840;-72
2023/01/29 02:46:14;;;;;;;19.94;10.68;;;;;;;-2.52;100.00;96738.69;1033897;28;20026;-73
2023/01/29 02:46:52;;;;;;;18.23;9.43;;;;;;;-2.51;100.00;96733.41;1035088;28;20026;-70
2023/01/29 02:47:29;;;;;;;20.10;10.14;;;;;;;-2.55;100.00;96736.44;1044497;28;20020;-72
2023/01/29 02:48:00;;;;;;;18.76;10.46;;;;;;;-2.57;100.00;96730.66;1037823;28;20563;-72
2023/01/29 02:48:59;;;;;;;20.28;11.14;;;;;;;-2.61;100.00;96737.88;1034302;28;20053;-73
2023/01/29 02:49:35;;;;;;;23.86;11.02;;;;;;;-2.64;100.00;96736.41;1014577;29;20035;-69
2023/01/29 02:50:14;;;;;;;19.28;10.30;;;;;;;-2.64;100.00;96738.19;1025299;28;20093;-72
2023/01/29 02:50:53;;;;;;;19.80;10.68;;;;;;;-2.67;100.00;96734.16;1035157;28;20028;-72
2023/01/29 02:51:40;;;;;;;20.02;11.64;;;;;;;-2.67;100.00;96726.44;1032730;28;20113;-69
2023/01/29 02:52:16;;;;;;;19.46;10.82;;;;;;;-2.67;100.00;96728.22;1043772;28;20044;-69
2023/01/29 02:53:04;;;;;;;20.60;10.73;;;;;;;-2.59;100.00;96737.72;1035795;28;20122;-72
2023/01/29 02:53:58;;;;;;;21.44;10.68;;;;;;;-2.54;100.00;96740.63;1039723;28;20079;-73
2023/01/29 02:54:52;;;;;;;23.26;10.32;;;;;;;-2.52;100.00;96733.56;1040979;28;20029;-69
2023/01/29 02:55:33;;;;;;;19.56;10.90;;;;;;;-2.50;100.00;96740.16;1033223;28;20429;-73